sensor_id;sensor_type;location;lat;lon;timestamp;temperature;humidity
32107;DHT22;18622;51.998;10.440;2023-03-01T03:47:03;-3.40;99.90
32107;DHT22;18622;51.998;10.440;2023-03-01T03:49:31;-3.50;99.90
32107;DHT22;18622;51.998;10.440;2023-03-01T03:51:59;-3.50;99.90
32107;DHT22;18622;51.998;10.440;2023-03-01T03:54:27;-3.50;99.90
32107;DHT22;18622;51.998;10.440;2023-03-01T03:56:54;-3.50;99.90
32107;DHT22;18622;51.998;10.440;2023-03-01T03:59:22;-3.50;99.90
32107;DHT22;18622;51.998;10.440;2023-03-01T04:01:50;-3.50;99.90
32107;DHT22;18622;51.998;10.440;2023-03-01T04:04:18;-3.50;99.90
32107;DHT22;18622;51.998;10.440;2023-03-01T04:06:46;-3.50;99.90
32107;DHT22;18622;51.998;10.440;2023-03-01T04:09:14;-3.50;99.90
32107;DHT22;18622;51.998;10.440;2023-03-01T04:11:42;-3.50;99.90
32107;DHT22;18622;51.998;10.440;2023-03-01T04:14:10;-3.50;99.90
32107;DHT22;18622;51.998;10.440;2023-03-01T04:16:38;-3.60;99.90
32107;DHT22;18622;51.998;10.440;2023-03-01T04:19:06;-3.60;99.90
32107;DHT22;18622;51.998;10.440;2023-03-01T04:21:33;-3.60;99.90
32107;DHT22;18622;51.998;10.440;2023-03-01T04:24:02;-3.60;99.90
32107;DHT22;18622;51.998;10.440;2023-03-01T04:26:30;-3.60;99.90
32107;DHT22;18622;51.998;10.440;2023-03-01T04:28:58;-3.60;99.90
32107;DHT22;18622;51.998;10.440;2023-03-01T04:31:26;-3.60;99.90
32107;DHT22;18622;51.998;10.440;2023-03-01T04:33:56;-3.60;99.90
32107;DHT22;18622;51.998;10.440;2023-03-01T04:36:25;-3.60;99.90
32107;DHT22;18622;51.998;10.440;2023-03-01T04:38:53;-3.60;99.90
32107;DHT22;18622;51.998;10.440;2023-03-01T04:41:23;-3.60;99.90
32107;DHT22;18622;51.998;10.440;2023-03-01T04:43:51;-3.60;99.90
32107;DHT22;18622;51.998;10.440;2023-03-01T04:46:20;-3.60;99.90
32107;DHT22;18622;51.998;10.440;2023-03-01T04:48:48;-3.60;99.90
32107;DHT22;18622;51.998;10.440;2023-03-01T04:51:16;-3.60;99.90
32107;DHT22;18622;51.998;10.440;2023-03-01T04:53:44;-3.70;99.90
32107;DHT22;18622;51.998;10.440;2023-03-01T04:56:13;-3.70;99.90
32107;DHT22;18622;51.998;10.440;2023-03-01T04:58:40;-3.70;99.90
32107;DHT22;18622;51.998;10.440;2023-03-01T05:01:10;-3.70;99.90
32107;DHT22;18622;51.998;10.440;2023-03-01T05:03:39;-3.80;99.90
32107;DHT22;18622;51.998;10.440;2023-03-01T05:06:07;-3.70;99.90
32107;DHT22;18622;51.998;10.440;2023-03-01T05:08:35;-3.70;99.90
32107;DHT22;18622;51.998;10.440;2023-03-01T05:11:05;-3.70;99.90
32107;DHT22;18622;51.998;10.440;2023-03-01T05:13:36;-3.80;99.90
32107;DHT22;18622;51.998;10.440;2023-03-01T05:16:05;-3.80;99.90
32107;DHT22;18622;51.998;10.440;2023-03-01T05:18:33;-3.80;99.90
32107;DHT22;18622;51.998;10.440;2023-03-01T05:21:09;-3.80;99.90
32107;DHT22;18622;51.998;10.440;2023-03-01T05:23:33;-3.80;99.90
32107;DHT22;18622;51.998;10.440;2023-03-01T05:26:02;-3.80;99.90
32107;DHT22;18622;51.998;10.440;2023-03-01T05:28:31;-3.80;99.90
32107;DHT22;18622;51.998;10.440;2023-03-01T05:30:59;-3.80;99.90
32107;DHT22;18622;51.998;10.440;2023-03-01T05:33:27;-3.80;99.90
32107;DHT22;18622;51.998;10.440;2023-03-01T05:35:59;-3.80;99.90
32107;DHT22;18622;51.998;10.440;2023-03-01T05:38:24;-3.80;99.90
32107;DHT22;18622;51.998;10.440;2023-03-01T05:40:52;-3.90;99.90
32107;DHT22;18622;51.998;10.440;2023-03-01T05:43:20;-3.90;99.90
32107;DHT22;18622;51.998;10.440;2023-03-01T05:45:48;-3.90;99.90
32107;DHT22;18622;51.998;10.440;2023-03-01T05:48:16;-3.90;99.90
32107;DHT22;18622;51.998;10.440;2023-03-01T05:50:45;-3.90;99.90
32107;DHT22;18622;51.998;10.440;2023-03-01T05:53:16;-3.90;99.90
32107;DHT22;18622;51.998;10.440;2023-03-01T05:55:45;-3.90;99.90
32107;DHT22;18622;51.998;10.440;2023-03-01T05:58:18;-3.90;99.90
32107;DHT22;18622;51.998;10.440;2023-03-01T06:00:47;-3.90;99.90
32107;DHT22;18622;51.998;10.440;2023-03-01T06:03:17;-3.90;99.90
32107;DHT22;18622;51.998;10.440;2023-03-01T06:05:45;-3.90;99.90
32107;DHT22;18622;51.998;10.440;2023-03-01T06:08:13;-3.90;99.90
32107;DHT22;18622;51.998;10.440;2023-03-01T06:10:41;-3.90;99.90
32107;DHT22;18622;51.998;10.440;2023-03-01T06:13:09;-3.90;99.90
32107;DHT22;18622;51.998;10.440;2023-03-01T06:15:36;-3.90;99.90
32107;DHT22;18622;51.998;10.440;2023-03-01T06:18:04;-3.80;99.90
32107;DHT22;18622;51.998;10.440;2023-03-01T06:20:32;-3.80;99.90
32107;DHT22;18622;51.998;10.440;2023-03-01T06:23:00;-3.80;99.90
32107;DHT22;18622;51.998;10.440;2023-03-01T06:25:28;-3.80;99.90
32107;DHT22;18622;51.998;10.440;2023-03-01T06:27:56;-3.80;99.90
32107;DHT22;18622;51.998;10.440;2023-03-01T15:47:30;19.80;29.70
32107;DHT22;18622;51.998;10.440;2023-03-01T15:50:00;19.50;30.10
32107;DHT22;18622;51.998;10.440;2023-03-01T15:52:32;19.30;30.40
32107;DHT22;18622;51.998;10.440;2023-03-01T15:55:02;19.00;30.80
32107;DHT22;18622;51.998;10.440;2023-03-01T15:57:30;18.80;30.60
32107;DHT22;18622;51.998;10.440;2023-03-01T15:59:58;18.40;31.10
32107;DHT22;18622;51.998;10.440;2023-03-01T16:02:25;18.10;31.70
32107;DHT22;18622;51.998;10.440;2023-03-01T16:04:54;17.40;32.50
32107;DHT22;18622;51.998;10.440;2023-03-01T16:07:22;16.10;34.10
32107;DHT22;18622;51.998;10.440;2023-03-01T16:09:50;14.50;36.20
32107;DHT22;18622;51.998;10.440;2023-03-01T16:12:18;13.20;37.50
32107;DHT22;18622;51.998;10.440;2023-03-01T16:14:47;12.10;39.40
32107;DHT22;18622;51.998;10.440;2023-03-01T16:17:15;11.20;40.70
32107;DHT22;18622;51.998;10.440;2023-03-01T16:19:43;10.50;41.60
32107;DHT22;18622;51.998;10.440;2023-03-01T16:22:11;9.80;42.90
32107;DHT22;18622;51.998;10.440;2023-03-01T16:24:39;9.30;44.00
32107;DHT22;18622;51.998;10.440;2023-03-01T16:27:07;8.80;44.70
32107;DHT22;18622;51.998;10.440;2023-03-01T16:29:35;8.40;45.50
32107;DHT22;18622;51.998;10.440;2023-03-01T16:32:03;8.00;46.20
32107;DHT22;18622;51.998;10.440;2023-03-01T16:34:31;7.60;46.50
32107;DHT22;18622;51.998;10.440;2023-03-01T16:36:58;7.30;47.80
32107;DHT22;18622;51.998;10.440;2023-03-01T16:39:26;7.00;48.30
32107;DHT22;18622;51.998;10.440;2023-03-01T16:41:54;6.60;48.10
32107;DHT22;18622;51.998;10.440;2023-03-01T16:44:22;6.30;48.50
32107;DHT22;18622;51.998;10.440;2023-03-01T16:46:50;6.00;49.70
32107;DHT22;18622;51.998;10.440;2023-03-01T16:49:17;5.70;50.70
32107;DHT22;18622;51.998;10.440;2023-03-01T16:51:45;5.40;51.40
32107;DHT22;18622;51.998;10.440;2023-03-01T16:54:13;5.10;51.90
32107;DHT22;18622;51.998;10.440;2023-03-01T16:56:41;4.90;52.30
32107;DHT22;18622;51.998;10.440;2023-03-01T16:59:09;4.60;52.60
32107;DHT22;18622;51.998;10.440;2023-03-01T17:01:36;4.30;53.30
32107;DHT22;18622;51.998;10.440;2023-03-01T17:04:06;4.10;53.90
32107;DHT22;18622;51.998;10.440;2023-03-01T17:06:34;3.90;54.80
32107;DHT22;18622;51.998;10.440;2023-03-01T17:09:02;3.70;55.20
32107;DHT22;18622;51.998;10.440;2023-03-01T17:11:30;3.40;56.00
32107;DHT22;18622;51.998;10.440;2023-03-01T17:13:58;3.30;57.00
32107;DHT22;18622;51.998;10.440;2023-03-01T17:16:25;3.10;58.20
32107;DHT22;18622;51.998;10.440;2023-03-01T17:18:53;3.00;58.20
32107;DHT22;18622;51.998;10.440;2023-03-01T17:21:21;2.80;59.90
32107;DHT22;18622;51.998;10.440;2023-03-01T17:23:49;2.70;60.50
32107;DHT22;18622;51.998;10.440;2023-03-01T17:26:18;2.50;61.40
32107;DHT22;18622;51.998;10.440;2023-03-01T17:28:46;2.50;61.50
32107;DHT22;18622;51.998;10.440;2023-03-01T17:31:15;2.40;62.00
32107;DHT22;18622;51.998;10.440;2023-03-01T17:33:43;2.30;62.10
32107;DHT22;18622;51.998;10.440;2023-03-01T17:36:10;2.20;62.40
32107;DHT22;18622;51.998;10.440;2023-03-01T17:38:38;2.00;63.30
32107;DHT22;18622;51.998;10.440;2023-03-01T17:41:06;2.00;64.00
32107;DHT22;18622;51.998;10.440;2023-03-01T17:43:34;1.90;63.50
32107;DHT22;18622;51.998;10.440;2023-03-01T17:46:02;1.80;63.80
32107;DHT22;18622;51.998;10.440;2023-03-01T17:48:29;1.70;63.80
32107;DHT22;18622;51.998;10.440;2023-03-01T17:50:57;1.60;63.80
32107;DHT22;18622;51.998;10.440;2023-03-01T17:53:25;1.50;63.70
32107;DHT22;18622;51.998;10.440;2023-03-01T17:55:58;1.40;63.80
32107;DHT22;18622;51.998;10.440;2023-03-01T17:58:23;1.30;64.20
32107;DHT22;18622;51.998;10.440;2023-03-01T18:00:51;1.20;64.90
32107;DHT22;18622;51.998;10.440;2023-03-01T18:03:19;1.20;66.20
32107;DHT22;18622;51.998;10.440;2023-03-01T18:05:47;1.10;67.50
32107;DHT22;18622;51.998;10.440;2023-03-01T18:08:16;1.10;68.50
32107;DHT22;18622;51.998;10.440;2023-03-01T18:10:43;1.00;68.70
32107;DHT22;18622;51.998;10.440;2023-03-01T18:13:11;1.00;69.00
32107;DHT22;18622;51.998;10.440;2023-03-01T18:15:40;1.00;69.10
32107;DHT22;18622;51.998;10.440;2023-03-01T18:18:08;0.90;70.00
32107;DHT22;18622;51.998;10.440;2023-03-01T18:20:35;0.90;70.20
32107;DHT22;18622;51.998;10.440;2023-03-01T18:23:03;0.80;70.70
32107;DHT22;18622;51.998;10.440;2023-03-01T18:25:32;0.80;71.60
32107;DHT22;18622;51.998;10.440;2023-03-01T18:27:59;0.70;72.40
32107;DHT22;18622;51.998;10.440;2023-03-01T18:30:27;0.70;72.80
32107;DHT22;18622;51.998;10.440;2023-03-01T18:32:55;0.70;73.30
32107;DHT22;18622;51.998;10.440;2023-03-01T18:35:23;0.60;73.90
32107;DHT22;18622;51.998;10.440;2023-03-01T18:37:51;0.60;74.00
32107;DHT22;18622;51.998;10.440;2023-03-01T18:40:19;0.50;74.50
32107;DHT22;18622;51.998;10.440;2023-03-01T18:42:46;0.50;75.60
32107;DHT22;18622;51.998;10.440;2023-03-01T18:45:14;0.40;77.10
32107;DHT22;18622;51.998;10.440;2023-03-01T18:47:43;0.50;78.40
32107;DHT22;18622;51.998;10.440;2023-03-01T18:50:11;0.40;79.40
32107;DHT22;18622;51.998;10.440;2023-03-01T18:52:38;0.40;80.80
32107;DHT22;18622;51.998;10.440;2023-03-01T18:55:06;0.40;82.30
32107;DHT22;18622;51.998;10.440;2023-03-01T18:57:34;0.30;83.10
32107;DHT22;18622;51.998;10.440;2023-03-01T19:00:03;0.30;84.50
32107;DHT22;18622;51.998;10.440;2023-03-01T19:02:30;0.30;85.70
32107;DHT22;18622;51.998;10.440;2023-03-01T19:04:58;0.30;86.70
32107;DHT22;18622;51.998;10.440;2023-03-01T19:07:26;0.30;87.10
32107;DHT22;18622;51.998;10.440;2023-03-01T19:09:54;0.20;88.20
32107;DHT22;18622;51.998;10.440;2023-03-01T19:12:22;0.20;88.40
32107;DHT22;18622;51.998;10.440;2023-03-01T19:14:49;0.20;89.20
32107;DHT22;18622;51.998;10.440;2023-03-01T19:17:17;0.20;89.80
32107;DHT22;18622;51.998;10.440;2023-03-01T19:19:46;0.20;89.60
32107;DHT22;18622;51.998;10.440;2023-03-01T19:22:15;0.10;89.40
32107;DHT22;18622;51.998;10.440;2023-03-01T19:24:43;0.10;90.10
32107;DHT22;18622;51.998;10.440;2023-03-01T19:27:11;0.00;90.20
32107;DHT22;18622;51.998;10.440;2023-03-01T19:29:39;0.00;90.20
32107;DHT22;18622;51.998;10.440;2023-03-01T19:32:07;0.00;90.30
32107;DHT22;18622;51.998;10.440;2023-03-01T19:34:34;-0.10;90.40
32107;DHT22;18622;51.998;10.440;2023-03-01T19:37:03;-0.20;90.50
32107;DHT22;18622;51.998;10.440;2023-03-01T19:39:31;-0.30;90.50
32107;DHT22;18622;51.998;10.440;2023-03-01T19:41:59;-0.30;90.70
32107;DHT22;18622;51.998;10.440;2023-03-01T19:44:27;-0.40;91.10
32107;DHT22;18622;51.998;10.440;2023-03-01T19:46:56;-0.40;91.30
32107;DHT22;18622;51.998;10.440;2023-03-01T19:49:24;-0.40;91.30
32107;DHT22;18622;51.998;10.440;2023-03-01T19:51:52;-0.50;91.50
32107;DHT22;18622;51.998;10.440;2023-03-01T19:54:20;-0.50;91.90
32107;DHT22;18622;51.998;10.440;2023-03-01T19:56:50;-0.50;92.00
32107;DHT22;18622;51.998;10.440;2023-03-01T19:59:18;-0.60;92.20
32107;DHT22;18622;51.998;10.440;2023-03-01T20:01:47;-0.60;92.90
32107;DHT22;18622;51.998;10.440;2023-03-01T20:04:15;-0.60;93.50
32107;DHT22;18622;51.998;10.440;2023-03-01T20:06:45;-0.60;94.80
32107;DHT22;18622;51.998;10.440;2023-03-01T20:09:13;-0.60;95.30
32107;DHT22;18622;51.998;10.440;2023-03-01T20:11:41;-0.60;95.10
32107;DHT22;18622;51.998;10.440;2023-03-01T20:14:09;-0.60;95.80
32107;DHT22;18622;51.998;10.440;2023-03-01T20:16:40;-0.50;96.30
32107;DHT22;18622;51.998;10.440;2023-03-01T20:19:08;-0.60;96.80
32107;DHT22;18622;51.998;10.440;2023-03-01T20:21:36;-0.60;97.20
32107;DHT22;18622;51.998;10.440;2023-03-01T20:24:03;-0.60;97.10
32107;DHT22;18622;51.998;10.440;2023-03-01T20:26:31;-0.60;97.30
32107;DHT22;18622;51.998;10.440;2023-03-01T20:28:59;-0.60;97.50
32107;DHT22;18622;51.998;10.440;2023-03-01T20:31:27;-0.60;98.40
32107;DHT22;18622;51.998;10.440;2023-03-01T20:33:56;-0.50;99.00
32107;DHT22;18622;51.998;10.440;2023-03-01T20:36:25;-0.50;98.60
32107;DHT22;18622;51.998;10.440;2023-03-01T20:38:53;-0.50;98.60
32107;DHT22;18622;51.998;10.440;2023-03-01T20:41:21;-0.50;98.20
32107;DHT22;18622;51.998;10.440;2023-03-01T20:43:50;-0.60;98.30
32107;DHT22;18622;51.998;10.440;2023-03-01T20:46:23;-0.60;98.60
32107;DHT22;18622;51.998;10.440;2023-03-01T20:48:52;-0.60;98.30
32107;DHT22;18622;51.998;10.440;2023-03-01T20:51:20;-0.60;98.60
32107;DHT22;18622;51.998;10.440;2023-03-01T20:53:48;-0.60;99.10
32107;DHT22;18622;51.998;10.440;2023-03-01T20:56:18;-0.60;98.80
32107;DHT22;18622;51.998;10.440;2023-03-01T20:58:46;-0.70;99.00
32107;DHT22;18622;51.998;10.440;2023-03-01T21:01:19;-0.70;99.10
32107;DHT22;18622;51.998;10.440;2023-03-01T21:03:47;-0.70;98.80
32107;DHT22;18622;51.998;10.440;2023-03-01T21:06:15;-0.70;99.20
32107;DHT22;18622;51.998;10.440;2023-03-01T21:08:43;-0.80;98.90
32107;DHT22;18622;51.998;10.440;2023-03-01T21:11:10;-0.80;99.00
32107;DHT22;18622;51.998;10.440;2023-03-01T21:13:38;-0.80;99.20
32107;DHT22;18622;51.998;10.440;2023-03-01T21:16:09;-0.80;99.20
32107;DHT22;18622;51.998;10.440;2023-03-01T21:18:39;-0.80;98.90
32107;DHT22;18622;51.998;10.440;2023-03-01T21:21:14;-0.90;98.80
32107;DHT22;18622;51.998;10.440;2023-03-01T21:23:40;-1.00;98.70
32107;DHT22;18622;51.998;10.440;2023-03-01T21:26:14;-1.00;98.50
32107;DHT22;18622;51.998;10.440;2023-03-01T21:28:40;-1.00;98.80
32107;DHT22;18622;51.998;10.440;2023-03-01T21:31:16;-1.10;98.70
32107;DHT22;18622;51.998;10.440;2023-03-01T21:33:52;-1.10;98.60
32107;DHT22;18622;51.998;10.440;2023-03-01T21:36:16;-1.10;98.60
32107;DHT22;18622;51.998;10.440;2023-03-01T21:38:46;-1.10;98.70
32107;DHT22;18622;51.998;10.440;2023-03-01T21:41:17;-1.20;99.00
32107;DHT22;18622;51.998;10.440;2023-03-01T21:43:46;-1.20;99.00
